createdAt,value
2022-08-04T00:02:24.572Z,5.72
2022-08-04T00:05:06.152Z,5.20
2022-08-04T00:07:53.019Z,4.80
2022-08-04T00:10:22.305Z,5.33
2022-08-04T00:12:52.314Z,5.62
2022-08-04T00:15:21.438Z,5.10
2022-08-04T00:17:57.497Z,5.45
2022-08-04T00:20:33.602Z,4.75
2022-08-04T00:23:06.479Z,5.20
2022-08-04T00:25:41.455Z,5.85
2022-08-04T00:28:11.921Z,5.97
2022-08-04T00:30:42.545Z,5.50
2022-08-04T00:33:11.897Z,5.67
2022-08-04T00:35:42.475Z,5.90
2022-08-04T00:38:11.325Z,6.08
2022-08-04T00:41:08.599Z,6.40
2022-08-04T00:43:52.370Z,6.05
2022-08-04T00:46:33.657Z,6.03
2022-08-04T00:49:50.797Z,6.45
2022-08-04T00:52:34.381Z,6.58
2022-08-04T00:55:58.896Z,6.55
2022-08-04T00:59:06.296Z,6.12
2022-08-04T01:01:49.987Z,6.33
2022-08-04T01:04:41.160Z,6.15
2022-08-04T01:07:27.419Z,7.03
2022-08-04T01:10:35.279Z,7.03
2022-08-04T01:13:32.414Z,7.30
2022-08-04T01:16:05.314Z,7.45
2022-08-04T01:18:52.185Z,7.37
2022-08-04T01:21:53.114Z,7.85
2022-08-04T01:24:42.746Z,7.53
2022-08-04T01:28:06.359Z,7.20
2022-08-04T01:30:36.538Z,7.35
2022-08-04T01:33:11.091Z,7.95
2022-08-04T01:35:56.210Z,7.97
2022-08-04T01:38:36.929Z,7.90
2022-08-04T01:41:15.918Z,7.47
2022-08-04T01:43:48.273Z,7.22
2022-08-04T01:46:18.522Z,7.90
2022-08-04T01:48:48.961Z,7.60
2022-08-04T01:51:18.031Z,7.90
2022-08-04T01:53:47.463Z,7.62
2022-08-04T01:56:17.161Z,8.03
2022-08-04T01:58:46.368Z,7.97
2022-08-04T02:01:16.067Z,7.87
2022-08-04T02:04:21.833Z,8.33
2022-08-04T02:06:31.614Z,8.30
2022-08-04T02:09:35.243Z,8.55
2022-08-04T02:12:17.756Z,8.80
2022-08-04T02:15:04.718Z,8.65
2022-08-04T02:17:52.537Z,8.80
2022-08-04T02:20:38.558Z,8.80
2022-08-04T02:23:11.748Z,8.83
2022-08-04T02:25:46.921Z,9.23
2022-08-04T02:28:42.626Z,9.08
2022-08-04T02:31:22.458Z,9.10
2022-08-04T02:34:21.833Z,9.38
2022-08-04T02:36:51.750Z,9.55
2022-08-04T02:39:21.600Z,9.58
2022-08-04T02:41:50.517Z,9.48
2022-08-04T02:44:23.212Z,9.35
2022-08-04T02:46:53.533Z,9.23
2022-08-04T02:49:23.204Z,8.83
2022-08-04T02:51:54.831Z,9.73
2022-08-04T02:54:32.670Z,9.43
2022-08-04T02:57:04.470Z,9.10
2022-08-04T02:59:42.156Z,9.55
2022-08-04T03:02:11.440Z,9.75
2022-08-04T03:05:01.127Z,9.45
2022-08-04T03:08:03.265Z,9.53
2022-08-04T03:11:22.129Z,9.88
2022-08-04T03:14:25.821Z,9.43
2022-08-04T03:17:09.402Z,9.40
2022-08-04T03:20:24.130Z,9.90
2022-08-04T03:23:18.105Z,9.90
2022-08-04T03:26:03.895Z,10.18
2022-08-04T03:29:11.934Z,9.50
2022-08-04T03:32:20.320Z,10.60
2022-08-04T03:35:24.055Z,9.83
2022-08-04T03:38:13.754Z,9.70
2022-08-04T03:41:00.485Z,9.93
2022-08-04T03:43:57.180Z,10.20
2022-08-04T03:46:36.640Z,10.35
2022-08-04T03:49:11.058Z,10.25
2022-08-04T03:52:38.670Z,10.35
2022-08-04T03:55:47.010Z,9.90
2022-08-04T03:58:37.007Z,9.80
2022-08-04T04:02:02.846Z,10.00
2022-08-04T04:04:41.494Z,9.75
2022-08-04T04:07:42.388Z,9.50
2022-08-04T04:10:31.769Z,9.65
2022-08-04T04:13:21.189Z,10.08
2022-08-04T04:16:26.391Z,10.10
2022-08-04T04:19:32.247Z,9.70
2022-08-04T04:22:22.734Z,9.50
2022-08-04T04:25:21.840Z,10.18
2022-08-04T04:28:45.507Z,10.20
2022-08-04T04:31:48.214Z,11.90
2022-08-04T04:34:53.440Z,10.43
2022-08-04T04:38:08.774Z,9.88
2022-08-04T04:41:06.529Z,10.68
2022-08-04T04:46:40.726Z,10.70
2022-08-04T04:49:27.875Z,10.80
2022-08-04T04:52:11.440Z,11.20
2022-08-04T04:54:54.544Z,11.33
2022-08-04T04:57:54.877Z,11.10
2022-08-04T05:00:02.703Z,11.95
2022-08-04T05:03:00.133Z,11.73
2022-08-04T05:05:40.563Z,11.00
2022-08-04T05:08:45.551Z,12.10
2022-08-04T05:11:48.091Z,11.75
2022-08-04T05:14:41.352Z,12.07
2022-08-04T05:17:22.753Z,12.05
2022-08-04T05:20:29.894Z,12.40
2022-08-04T05:23:03.272Z,11.05
2022-08-04T05:25:59.659Z,11.30
2022-08-04T05:28:43.475Z,11.40
2022-08-04T05:31:20.491Z,12.07
2022-08-04T05:34:04.399Z,11.60
2022-08-04T05:36:48.974Z,11.57
2022-08-04T05:39:25.357Z,13.48
2022-08-04T05:41:55.749Z,12.53
2022-08-04T05:44:26.233Z,13.20
2022-08-04T05:46:59.345Z,12.18
2022-08-04T05:49:30.072Z,11.25
2022-08-04T05:52:03.785Z,11.80
2022-08-04T05:54:34.098Z,11.83
2022-08-04T05:57:05.290Z,12.03
2022-08-04T05:59:38.697Z,12.50
2022-08-04T06:02:08.913Z,12.07
2022-08-04T06:04:40.263Z,11.33
2022-08-04T06:07:11.266Z,11.65
2022-08-04T06:09:41.798Z,12.70
2022-08-04T06:12:19.680Z,12.73
2022-08-04T06:14:52.964Z,12.13
2022-08-04T06:18:33.814Z,12.00
2022-08-04T06:20:19.956Z,11.63
2022-08-04T06:22:41.759Z,12.93
2022-08-04T06:25:13.013Z,12.35
2022-08-04T06:27:41.849Z,11.90
2022-08-04T06:30:13.303Z,11.33
2022-08-04T06:32:51.160Z,11.70
2022-08-04T06:35:22.657Z,12.10
2022-08-04T06:37:55.616Z,11.70
2022-08-04T06:40:31.122Z,12.03
2022-08-04T06:42:56.119Z,11.50
2022-08-04T06:45:25.844Z,12.07
2022-08-04T06:47:55.354Z,12.93
2022-08-04T06:51:26.316Z,12.78
2022-08-04T06:52:55.676Z,12.37
2022-08-04T06:55:25.588Z,12.00
2022-08-04T06:57:58.460Z,11.88
2022-08-04T07:00:26.303Z,12.50
2022-08-04T07:02:58.209Z,12.80
2022-08-04T07:05:27.741Z,12.28
2022-08-04T07:07:58.712Z,12.40
2022-08-04T07:10:28.419Z,11.65
2022-08-04T07:12:58.158Z,11.90
2022-08-04T07:15:27.520Z,12.78
2022-08-04T07:17:59.245Z,13.13
2022-08-04T07:20:30.440Z,12.37
2022-08-04T07:23:01.477Z,11.90
2022-08-04T07:25:59.570Z,12.37
2022-08-04T07:28:01.987Z,12.58
2022-08-04T07:30:31.488Z,11.08
2022-08-04T07:33:00.891Z,10.98
2022-08-04T07:36:05.090Z,11.45
2022-08-04T07:38:01.101Z,12.70
2022-08-04T07:40:31.069Z,12.28
2022-08-04T07:43:00.583Z,12.03
2022-08-04T07:45:30.133Z,11.43
2022-08-04T07:48:04.381Z,10.75
2022-08-04T07:50:31.768Z,12.15
2022-08-04T07:53:52.720Z,12.05
2022-08-04T07:55:33.363Z,12.90
2022-08-04T07:58:02.333Z,13.62
2022-08-04T08:00:31.441Z,13.05
2022-08-04T08:03:00.253Z,12.50
2022-08-04T08:05:29.924Z,12.78
2022-08-04T08:07:59.128Z,12.70
2022-08-04T08:10:28.703Z,11.83
2022-08-04T08:12:59.391Z,12.00
2022-08-04T08:15:28.816Z,12.58
2022-08-04T08:18:00.834Z,13.53
2022-08-04T08:20:31.318Z,12.13
2022-08-04T08:23:01.357Z,11.97
2022-08-04T08:25:35.567Z,11.40
2022-08-04T08:28:06.242Z,12.23
2022-08-04T08:30:35.120Z,10.65
2022-08-04T08:33:10.013Z,11.70
2022-08-04T08:36:18.461Z,11.53
2022-08-04T08:39:14.232Z,11.03
2022-08-04T08:42:39.673Z,10.13
2022-08-04T08:45:19.248Z,11.25
2022-08-04T08:48:05.975Z,11.10
2022-08-04T08:50:56.725Z,10.98
2022-08-04T08:54:01.876Z,10.80
2022-08-04T08:56:47.996Z,10.32
2022-08-04T08:59:34.411Z,10.23
2022-08-04T09:02:30.522Z,10.72
2022-08-04T09:05:43.658Z,11.05
2022-08-04T09:08:30.365Z,10.70
2022-08-04T09:11:04.404Z,11.08
2022-08-04T09:13:41.658Z,10.08
2022-08-04T09:16:28.954Z,9.73
2022-08-04T09:19:37.239Z,11.22
2022-08-04T09:22:03.164Z,10.55
2022-08-04T09:25:11.756Z,10.03
2022-08-04T09:27:57.470Z,9.88
2022-08-04T09:31:01.641Z,10.60
2022-08-04T09:33:44.841Z,10.32
2022-08-04T09:36:33.441Z,10.18
2022-08-04T09:39:51.845Z,9.55
2022-08-04T09:42:29.416Z,9.70
2022-08-04T09:45:26.579Z,10.58
2022-08-04T09:48:00.876Z,10.13
2022-08-04T09:50:39.005Z,10.75
2022-08-04T09:53:31.968Z,12.37
2022-08-04T09:56:13.137Z,9.80
2022-08-04T09:58:59.401Z,9.83
2022-08-04T10:01:30.021Z,10.10
2022-08-04T10:04:03.963Z,9.35
2022-08-04T10:06:59.532Z,8.83
2022-08-04T10:09:37.038Z,8.78
2022-08-04T10:12:32.174Z,9.28
2022-08-04T10:15:13.193Z,9.05
2022-08-04T10:18:13.869Z,8.95
2022-08-04T10:21:10.156Z,9.73
2022-08-04T10:23:55.867Z,9.58
2022-08-04T10:26:52.133Z,8.48
2022-08-04T10:29:40.660Z,8.70
2022-08-04T10:32:42.997Z,8.43
2022-08-04T10:35:14.775Z,7.53
2022-08-04T10:38:12.967Z,8.40
2022-08-04T10:40:48.384Z,8.13
2022-08-04T10:43:37.683Z,8.83
2022-08-04T10:46:13.533Z,8.60
2022-08-04T10:49:10.323Z,8.50
2022-08-04T10:51:58.197Z,8.13
2022-08-04T10:55:05.508Z,7.92
2022-08-04T10:57:53.502Z,8.65
2022-08-04T11:00:27.880Z,7.92
2022-08-04T11:03:11.060Z,8.95
2022-08-04T11:06:02.908Z,11.03
2022-08-04T11:08:38.979Z,8.75
2022-08-04T11:12:01.026Z,8.10
2022-08-04T11:16:58.772Z,9.08
2022-08-04T11:19:53.934Z,9.45
2022-08-04T11:22:26.817Z,9.48
2022-08-04T11:25:11.513Z,10.98
2022-08-04T11:27:51.462Z,10.93
2022-08-04T11:30:22.138Z,10.95
2022-08-04T11:33:20.272Z,9.93
2022-08-04T11:36:07.751Z,11.22
2022-08-04T11:39:04.601Z,10.13
2022-08-04T11:41:55.544Z,10.87
2022-08-04T11:45:07.785Z,9.63
2022-08-04T11:48:01.135Z,9.78
2022-08-04T11:50:54.004Z,10.20
2022-08-04T11:53:28.394Z,9.98
2022-08-04T11:56:07.909Z,9.13
2022-08-04T11:58:32.696Z,9.03
2022-08-04T12:01:28.207Z,9.10
2022-08-04T12:04:18.399Z,8.88
2022-08-04T12:07:28.911Z,9.10
2022-08-04T12:10:07.986Z,9.35
2022-08-04T12:12:50.075Z,9.18
2022-08-04T12:15:30.744Z,9.13
2022-08-04T12:18:37.415Z,8.43
2022-08-04T12:21:15.374Z,8.85
2022-08-04T12:23:46.357Z,8.65
2022-08-04T12:26:21.853Z,7.87
2022-08-04T12:29:09.682Z,10.68
2022-08-04T12:31:57.093Z,9.58
2022-08-04T12:34:35.612Z,8.75
2022-08-04T12:37:33.275Z,8.75
2022-08-04T12:40:29.235Z,8.50
2022-08-04T12:43:15.378Z,8.48
2022-08-04T12:45:54.094Z,8.75
2022-08-04T12:48:24.512Z,8.58
2022-08-04T12:50:55.224Z,8.03
2022-08-04T12:53:34.090Z,7.25
2022-08-04T12:56:05.468Z,7.28
2022-08-04T12:58:43.698Z,6.97
2022-08-04T13:02:09.628Z,7.37
2022-08-04T13:03:58.665Z,6.78
2022-08-04T13:06:33.238Z,7.70
2022-08-04T13:09:17.542Z,7.22
2022-08-04T13:12:05.318Z,6.67
2022-08-04T13:14:37.457Z,6.45
2022-08-04T13:17:08.679Z,6.60
2022-08-04T13:19:41.175Z,7.05
2022-08-04T13:22:09.919Z,6.60
2022-08-04T13:24:56.643Z,6.80
2022-08-04T13:27:18.985Z,9.08
2022-08-04T13:30:00.411Z,7.55
2022-08-04T13:32:20.338Z,6.80
2022-08-04T13:34:52.504Z,6.83
2022-08-04T13:37:26.976Z,6.45
2022-08-04T13:39:57.787Z,6.90
2022-08-04T13:42:28.118Z,7.42
2022-08-04T13:45:02.557Z,7.35
2022-08-04T13:47:37.188Z,7.30
2022-08-04T13:50:30.116Z,7.58
2022-08-04T13:53:01.056Z,8.05
2022-08-04T13:55:37.955Z,7.08
2022-08-04T13:58:25.243Z,7.10
2022-08-04T14:03:32.380Z,5.97
2022-08-04T14:06:21.377Z,6.42
2022-08-04T14:09:04.342Z,5.37
2022-08-04T14:12:10.731Z,4.80
2022-08-04T14:14:29.155Z,5.05
2022-08-04T14:17:18.020Z,6.12
2022-08-04T14:20:00.652Z,5.75
2022-08-04T14:22:34.478Z,6.80
2022-08-04T14:25:16.780Z,6.67
2022-08-04T14:27:51.512Z,6.28
2022-08-04T14:30:31.618Z,6.37
2022-08-04T14:34:01.091Z,6.03
2022-08-04T14:35:49.976Z,5.70
2022-08-04T14:38:11.543Z,6.30
2022-08-04T14:40:42.076Z,6.00
2022-08-04T14:43:14.198Z,7.28
2022-08-04T14:45:54.646Z,6.20
2022-08-04T14:48:21.929Z,6.62
2022-08-04T14:50:52.792Z,6.85
2022-08-04T14:53:29.548Z,6.58
2022-08-04T14:56:00.202Z,6.50
2022-08-04T14:58:38.974Z,6.05
2022-08-04T15:01:10.234Z,5.92
2022-08-04T15:03:52.383Z,6.92
2022-08-04T15:06:21.570Z,7.92
2022-08-04T15:08:51.021Z,7.80
2022-08-04T15:11:23.346Z,6.97
2022-08-04T15:13:55.191Z,7.17
2022-08-04T15:16:26.016Z,6.33
2022-08-04T15:18:57.034Z,6.55
2022-08-04T15:21:28.128Z,7.10
2022-08-04T15:23:58.680Z,7.12
2022-08-04T15:26:35.730Z,6.85
2022-08-04T15:29:17.680Z,6.90
2022-08-04T15:32:06.131Z,7.22
2022-08-04T15:34:19.311Z,7.20
2022-08-04T15:36:56.370Z,6.95
2022-08-04T15:39:47.915Z,6.47
2022-08-04T15:42:34.192Z,6.00
2022-08-04T15:45:23.838Z,5.25
2022-08-04T15:48:09.202Z,5.65
2022-08-04T15:51:03.071Z,6.10
2022-08-04T15:54:02.346Z,6.87
2022-08-04T15:56:34.597Z,6.42
2022-08-04T15:59:05.070Z,5.75
2022-08-04T16:01:35.112Z,5.75
2022-08-04T16:04:23.891Z,6.33
2022-08-04T16:06:55.289Z,6.97
2022-08-04T16:09:45.128Z,5.92
2022-08-04T16:11:57.910Z,5.85
2022-08-04T16:14:36.033Z,5.92
2022-08-04T16:17:18.074Z,5.92
2022-08-04T16:20:04.298Z,7.62
2022-08-04T16:22:40.113Z,6.00
2022-08-04T16:25:10.559Z,5.70
2022-08-04T16:27:43.412Z,5.50
2022-08-04T16:30:15.359Z,6.50
2022-08-04T16:32:49.067Z,6.40
2022-08-04T16:35:26.285Z,6.75
2022-08-04T16:38:17.679Z,6.05
2022-08-04T16:40:49.389Z,6.15
2022-08-04T16:43:18.937Z,6.15
2022-08-04T16:46:05.210Z,5.90
2022-08-04T16:48:35.802Z,6.90
2022-08-04T16:51:10.170Z,5.35
2022-08-04T16:53:57.973Z,6.28
2022-08-04T16:56:18.112Z,5.83
2022-08-04T16:58:54.214Z,5.87
2022-08-04T17:01:33.481Z,5.75
2022-08-04T17:03:57.678Z,6.15
2022-08-04T17:06:26.993Z,5.35
2022-08-04T17:08:57.243Z,5.50
2022-08-04T17:11:32.851Z,5.60
2022-08-04T17:14:05.644Z,5.95
2022-08-04T17:16:38.808Z,5.70
2022-08-04T17:19:23.899Z,5.87
2022-08-04T17:21:40.138Z,5.65
2022-08-04T17:24:14.838Z,4.83
2022-08-04T17:26:45.321Z,5.90
2022-08-04T17:29:18.244Z,5.70
2022-08-04T17:31:46.684Z,5.10
2022-08-04T17:34:20.371Z,5.92
2022-08-04T17:36:50.776Z,5.97
2022-08-04T17:39:25.076Z,5.90
2022-08-04T17:41:57.480Z,5.92
2022-08-04T17:44:38.681Z,5.67
2022-08-04T17:47:19.694Z,5.35
2022-08-04T17:49:53.236Z,5.95
2022-08-04T17:52:39.672Z,5.40
2022-08-04T17:57:35.583Z,6.70
2022-08-04T18:00:06.348Z,6.22
2022-08-04T18:02:39.180Z,6.72
2022-08-04T18:05:11.518Z,5.97
2022-08-04T18:08:42.830Z,5.92
2022-08-04T18:10:30.692Z,6.10
2022-08-04T18:12:50.062Z,7.25
2022-08-04T18:15:25.215Z,6.62
2022-08-04T18:18:20.976Z,6.37
2022-08-04T18:20:31.107Z,6.12
2022-08-04T18:23:03.115Z,6.37
2022-08-04T18:25:51.403Z,6.83
2022-08-04T18:28:13.801Z,6.30
2022-08-04T18:30:54.829Z,6.60
2022-08-04T18:33:37.581Z,6.30
2022-08-04T18:36:33.751Z,6.87
2022-08-04T18:38:22.577Z,6.05
2022-08-04T18:40:52.690Z,6.30
2022-08-04T18:43:27.910Z,7.03
2022-08-04T18:45:53.892Z,7.05
2022-08-04T18:48:36.056Z,6.78
2022-08-04T18:51:09.386Z,6.70
2022-08-04T18:53:35.761Z,6.72
2022-08-04T18:56:03.931Z,7.28
2022-08-04T18:58:36.056Z,6.85
2022-08-04T19:01:13.527Z,6.85
2022-08-04T19:03:40.895Z,6.80
2022-08-04T19:06:13.828Z,6.33
2022-08-04T19:08:45.601Z,7.00
2022-08-04T19:11:37.314Z,6.40
2022-08-04T19:16:20.987Z,6.17
2022-08-04T19:18:50.733Z,6.25
2022-08-04T19:21:20.914Z,6.00
2022-08-04T19:24:28.245Z,7.03
2022-08-04T19:26:28.073Z,7.10
2022-08-04T19:28:56.327Z,6.95
2022-08-04T19:34:04.747Z,6.42
2022-08-04T19:36:30.948Z,6.58
2022-08-04T19:39:11.308Z,6.67
2022-08-04T19:42:05.819Z,6.45
2022-08-04T19:44:09.197Z,6.65
2022-08-04T19:46:39.253Z,5.87
2022-08-04T19:49:08.717Z,6.45
2022-08-04T19:51:40.212Z,6.17
2022-08-04T19:54:17.061Z,6.90
2022-08-04T19:56:44.888Z,6.45
2022-08-04T19:59:16.859Z,6.12
2022-08-04T20:01:47.435Z,6.33
2022-08-04T20:04:17.839Z,6.20
2022-08-04T20:06:50.862Z,6.37
2022-08-04T20:09:25.544Z,5.67
2022-08-04T20:11:56.748Z,6.33
2022-08-04T20:14:31.410Z,6.30
2022-08-04T20:17:00.415Z,6.42
2022-08-04T20:19:30.306Z,6.87
2022-08-04T20:22:00.142Z,6.90
2022-08-04T20:27:07.796Z,6.70
2022-08-04T20:29:40.539Z,7.30
2022-08-04T20:32:09.845Z,6.95
2022-08-04T20:34:40.088Z,6.85
2022-08-04T20:37:10.815Z,6.37
2022-08-04T20:39:42.737Z,6.47
2022-08-04T20:42:12.565Z,7.05
2022-08-04T20:44:46.964Z,7.37
2022-08-04T20:47:17.190Z,6.37
2022-08-04T20:49:47.978Z,6.62
2022-08-04T20:54:49.322Z,6.40
2022-08-04T20:57:48.436Z,7.10
2022-08-04T20:59:59.817Z,6.87
2022-08-04T21:02:24.934Z,5.97
2022-08-04T21:04:56.982Z,7.05
2022-08-04T21:07:26.945Z,6.47
2022-08-04T21:09:56.811Z,7.10
2022-08-04T21:12:27.767Z,6.80
2022-08-04T21:15:01.137Z,6.50
2022-08-04T21:17:56.777Z,6.97
2022-08-04T21:20:03.384Z,6.95
2022-08-04T21:22:33.408Z,6.70
2022-08-04T21:25:03.180Z,6.72
2022-08-04T21:27:39.363Z,6.65
2022-08-04T21:30:06.220Z,6.62
2022-08-04T21:32:37.781Z,7.00
2022-08-04T21:35:10.596Z,6.92
2022-08-04T21:37:58.236Z,6.28
2022-08-04T21:40:15.253Z,6.17
2022-08-04T21:42:50.159Z,6.40
2022-08-04T21:45:16.189Z,6.58
2022-08-04T21:47:49.487Z,6.45
2022-08-04T21:50:19.846Z,6.70
2022-08-04T21:52:51.291Z,6.85
2022-08-04T21:55:21.282Z,6.15
2022-08-04T21:57:51.358Z,7.53
2022-08-04T22:00:21.411Z,6.90
2022-08-04T22:02:53.279Z,6.87
2022-08-04T22:05:24.013Z,6.50
2022-08-04T22:07:54.025Z,6.22
2022-08-04T22:10:32.697Z,6.83
2022-08-04T22:12:54.915Z,6.28
2022-08-04T22:16:03.507Z,7.10
2022-08-04T22:17:59.541Z,6.58
2022-08-04T22:20:30.268Z,6.85
2022-08-04T22:23:15.749Z,6.40
2022-08-04T22:25:32.395Z,6.70
2022-08-04T22:28:04.336Z,6.67
2022-08-04T22:30:37.536Z,6.58
2022-08-04T22:33:09.708Z,6.60
2022-08-04T22:35:44.104Z,6.60
2022-08-04T22:38:28.948Z,5.72
2022-08-04T22:40:47.486Z,6.05
2022-08-04T22:43:31.997Z,6.47
2022-08-04T22:45:48.368Z,6.22
2022-08-04T22:48:18.442Z,6.40
2022-08-04T22:50:50.065Z,5.60
2022-08-04T22:53:20.390Z,5.45
2022-08-04T22:56:06.694Z,6.08
2022-08-04T22:58:21.983Z,6.10
2022-08-04T23:00:54.100Z,6.35
2022-08-04T23:03:37.361Z,6.28
2022-08-04T23:05:57.490Z,5.92
2022-08-04T23:08:27.397Z,5.92
2022-08-04T23:10:59.749Z,5.85
2022-08-04T23:13:31.872Z,6.05
2022-08-04T23:16:09.988Z,5.85
2022-08-04T23:21:10.942Z,5.92
2022-08-04T23:23:45.657Z,5.80
2022-08-04T23:26:14.968Z,6.03
2022-08-04T23:28:47.084Z,5.70
2022-08-04T23:31:16.749Z,5.78
2022-08-04T23:33:50.679Z,5.90
2022-08-04T23:36:16.852Z,5.65
2022-08-04T23:38:47.007Z,5.45
2022-08-04T23:41:18.477Z,5.45
2022-08-04T23:43:55.768Z,5.80
2022-08-04T23:46:21.140Z,6.03
2022-08-04T23:48:52.220Z,5.78
2022-08-04T23:51:22.012Z,5.75
2022-08-04T23:54:03.266Z,5.83
2022-08-04T23:56:23.903Z,6.05
2022-08-04T23:58:55.546Z,5.50
